Time;durP1;ratioP1;P1;durP2;ratioP2;P2;SDS_P1;SDS_P2;PMS_P1;PMS_P2;Temp;Humidity;BMP_temperature;BMP_pressure;BME280_temperature;BME280_humidity;BME280_pressure;Samples;Min_cycle;Max_cycle;Signal;HPM_P1;HPM_P2
2022/01/31 00:00:13;;;;;;;15.93;4.18;;;4.00;99.90;;;;;;4955943;28;20045;-80
2022/01/31 00:02:40;;;;;;;16.48;4.90;;;4.00;99.90;;;;;;4971585;28;20046;-80
2022/01/31 00:05:06;;;;;;;19.98;4.38;;;4.00;99.90;;;;;;4973815;28;20474;-80
2022/01/31 00:07:32;;;;;;;17.70;4.35;;;4.00;99.90;;;;;;4960727;28;20046;-80
2022/01/31 00:09:58;;;;;;;17.05;4.30;;;4.00;99.90;;;;;;4956938;28;20145;-79
2022/01/31 00:12:27;;;;;;;13.75;4.53;;;4.00;99.90;;;;;;4961084;28;20050;-80
2022/01/31 00:15:00;;;;;;;21.23;4.60;;;4.00;99.90;;;;;;4953423;28;20108;-80
2022/01/31 00:17:26;;;;;;;18.13;4.82;;;4.00;99.90;;;;;;4990687;28;20065;-80
2022/01/31 00:19:51;;;;;;;16.83;4.80;;;4.00;99.90;;;;;;4955747;28;20043;-79
2022/01/31 00:22:17;;;;;;;17.77;4.53;;;4.00;99.90;;;;;;4954435;28;20050;-80
2022/01/31 00:24:43;;;;;;;20.50;4.85;;;4.00;99.90;;;;;;4974504;28;20049;-80
2022/01/31 00:27:09;;;;;;;17.02;5.28;;;4.00;99.90;;;;;;4952659;28;20039;-80
2022/01/31 00:29:36;;;;;;;18.10;4.75;;;4.00;99.90;;;;;;4959034;28;20039;-80
2022/01/31 00:32:03;;;;;;;22.75;5.68;;;4.00;99.90;;;;;;4976361;28;20477;-80
2022/01/31 00:34:28;;;;;;;18.30;5.70;;;4.00;99.90;;;;;;4973866;28;20446;-80
2022/01/31 00:36:54;;;;;;;17.75;5.10;;;4.00;99.90;;;;;;4971149;28;20054;-80
2022/01/31 00:39:20;;;;;;;16.48;5.47;;;4.10;99.90;;;;;;4948003;28;20077;-80
2022/01/31 00:41:46;;;;;;;19.30;5.25;;;4.10;99.90;;;;;;4957786;28;20058;-79
2022/01/31 00:46:44;;;;;;;19.55;5.90;;;4.10;99.90;;;;;;4975170;28;20068;-80
2022/01/31 00:49:17;;;;;;;18.45;6.57;;;4.10;99.90;;;;;;4980001;28;20556;-80
2022/01/31 00:51:43;;;;;;;19.77;6.22;;;4.10;99.90;;;;;;4956640;28;20096;-80
2022/01/31 00:54:08;;;;;;;24.88;6.38;;;4.10;99.90;;;;;;4981704;28;20046;-80
2022/01/31 00:56:34;;;;;;;23.27;6.97;;;4.10;99.90;;;;;;4968225;28;20121;-79
2022/01/31 00:58:59;;;;;;;20.63;6.45;;;4.20;99.90;;;;;;4979795;28;20049;-80
2022/01/31 01:01:25;;;;;;;22.70;7.57;;;4.10;99.90;;;;;;4966440;28;20051;-79
2022/01/31 01:03:51;;;;;;;20.45;7.32;;;4.10;99.90;;;;;;4974696;28;20076;-80
2022/01/31 01:06:16;;;;;;;22.58;7.15;;;4.20;99.90;;;;;;4979211;28;20406;-80
2022/01/31 01:08:42;;;;;;;21.77;7.25;;;4.10;99.90;;;;;;4957982;28;20501;-80
2022/01/31 01:11:08;;;;;;;18.05;7.57;;;4.10;99.90;;;;;;4977106;28;20034;-80
2022/01/31 01:13:34;;;;;;;21.13;7.88;;;4.10;99.90;;;;;;4977353;28;20039;-80
2022/01/31 01:16:00;;;;;;;18.73;7.25;;;4.10;99.90;;;;;;4954435;28;20093;-79
2022/01/31 01:18:25;;;;;;;18.20;7.35;;;4.10;99.90;;;;;;4955567;28;20065;-80
2022/01/31 01:20:51;;;;;;;20.40;7.60;;;4.10;99.90;;;;;;4972645;28;20042;-80
2022/01/31 01:23:16;;;;;;;17.42;8.05;;;4.10;99.90;;;;;;4972464;28;20390;-80
2022/01/31 01:25:42;;;;;;;25.52;9.18;;;4.10;99.90;;;;;;4967761;28;20042;-79
2022/01/31 01:28:08;;;;;;;25.30;8.73;;;4.10;99.90;;;;;;4972493;28;20031;-80
2022/01/31 01:30:34;;;;;;;25.13;9.05;;;4.10;99.90;;;;;;4968700;28;20316;-80
2022/01/31 01:33:06;;;;;;;22.60;8.27;;;4.00;99.90;;;;;;4962770;28;20480;-80
2022/01/31 01:35:33;;;;;;;20.48;9.23;;;4.00;99.90;;;;;;4955369;28;20035;-79
2022/01/31 01:38:04;;;;;;;25.70;9.68;;;4.00;99.90;;;;;;4968811;28;20034;-80
2022/01/31 01:40:30;;;;;;;24.33;11.13;;;4.00;99.90;;;;;;4975505;28;20101;-80
2022/01/31 01:42:56;;;;;;;22.77;10.88;;;3.90;99.90;;;;;;4950600;28;20122;-80
2022/01/31 01:45:22;;;;;;;26.08;11.95;;;3.90;99.90;;;;;;4974106;28;20125;-80
2022/01/31 01:47:47;;;;;;;25.95;12.55;;;3.90;99.90;;;;;;4970179;28;20045;-80
2022/01/31 01:50:13;;;;;;;28.90;13.15;;;3.90;99.90;;;;;;4982004;28;20053;-80
2022/01/31 01:52:39;;;;;;;23.30;12.38;;;3.80;99.90;;;;;;4970431;28;21416;-80
2022/01/31 01:55:07;;;;;;;30.20;13.77;;;3.80;99.90;;;;;;4969300;28;20066;-80
2022/01/31 01:57:32;;;;;;;26.55;12.82;;;3.80;99.90;;;;;;4969040;28;20105;-80
2022/01/31 01:59:58;;;;;;;31.02;13.70;;;3.80;99.90;;;;;;4967039;28;20045;-80
2022/01/31 02:02:24;;;;;;;22.15;12.95;;;3.80;99.90;;;;;;4969429;28;21090;-81
2022/01/31 02:04:50;;;;;;;27.58;13.35;;;3.80;99.90;;;;;;4970699;28;20152;-80
2022/01/31 02:07:16;;;;;;;22.20;13.77;;;3.70;99.90;;;;;;4962958;28;20048;-80
2022/01/31 02:09:45;;;;;;;23.63;12.73;;;3.60;99.90;;;;;;4956396;28;20116;-80
2022/01/31 02:12:11;;;;;;;25.17;13.65;;;3.60;99.90;;;;;;4957972;28;20037;-80
2022/01/31 02:14:36;;;;;;;23.88;13.98;;;3.60;99.90;;;;;;4972138;28;20043;-80
2022/01/31 02:17:03;;;;;;;21.70;12.13;;;3.50;99.90;;;;;;4970939;28;20046;-80
2022/01/31 02:19:28;;;;;;;23.80;12.10;;;3.50;99.90;;;;;;4968171;28;20106;-80
2022/01/31 02:21:55;;;;;;;26.80;13.60;;;3.50;99.90;;;;;;4953808;28;20141;-80
2022/01/31 02:24:20;;;;;;;19.77;12.32;;;3.50;99.90;;;;;;4992782;28;20469;-80
2022/01/31 02:26:46;;;;;;;21.02;13.50;;;3.50;99.90;;;;;;4960188;28;20042;-80
2022/01/31 02:29:12;;;;;;;23.15;13.43;;;3.40;99.90;;;;;;4963160;28;20438;-80
2022/01/31 02:31:48;;;;;;;23.30;13.73;;;3.40;99.90;;;;;;4966086;28;20050;-80
2022/01/31 02:34:16;;;;;;;21.33;13.75;;;3.40;99.90;;;;;;4978206;28;20357;-80
2022/01/31 02:36:42;;;;;;;21.35;14.52;;;3.50;99.90;;;;;;4963288;28;20097;-80
2022/01/31 02:39:08;;;;;;;23.75;15.05;;;3.40;99.90;;;;;;4973858;28;20066;-80
2022/01/31 02:41:45;;;;;;;22.73;13.90;;;3.50;99.90;;;;;;4983598;28;20222;-80
2022/01/31 02:44:15;;;;;;;24.27;13.82;;;3.40;99.90;;;;;;4959625;28;20038;-80
2022/01/31 02:46:54;;;;;;;24.50;14.35;;;3.50;99.90;;;;;;4966272;28;20054;-80
2022/01/31 02:49:24;;;;;;;21.75;14.23;;;3.50;99.90;;;;;;4980974;28;20488;-80
2022/01/31 02:51:53;;;;;;;20.60;13.82;;;3.60;99.90;;;;;;4985048;28;20351;-80
2022/01/31 02:54:18;;;;;;;23.23;13.98;;;3.60;99.90;;;;;;4959932;28;20101;-80
2022/01/31 02:56:44;;;;;;;21.13;13.90;;;3.60;99.90;;;;;;4971629;28;20421;-80
2022/01/31 02:59:10;;;;;;;20.88;12.57;;;3.60;99.90;;;;;;4969180;28;20050;-80
2022/01/31 03:01:37;;;;;;;21.45;12.65;;;3.70;99.90;;;;;;4987526;28;20512;-80
2022/01/31 03:04:03;;;;;;;18.30;11.90;;;3.70;99.90;;;;;;4985227;28;20034;-80
2022/01/31 03:06:29;;;;;;;18.88;11.65;;;3.80;99.90;;;;;;4967842;28;20065;-80
2022/01/31 03:08:54;;;;;;;15.60;10.52;;;3.80;99.90;;;;;;4969629;28;20038;-80
2022/01/31 03:11:20;;;;;;;15.60;10.35;;;3.90;99.90;;;;;;4956699;28;20035;-80
2022/01/31 03:13:48;;;;;;;16.38;11.32;;;3.90;99.90;;;;;;4987354;28;20443;-80
2022/01/31 03:16:14;;;;;;;13.82;9.90;;;3.90;99.90;;;;;;4976399;28;20206;-80
2022/01/31 03:18:40;;;;;;;15.05;10.20;;;3.90;99.90;;;;;;4976020;28;20030;-80
2022/01/31 03:21:05;;;;;;;18.40;11.00;;;4.00;99.90;;;;;;4968230;28;20167;-80
2022/01/31 03:23:33;;;;;;;15.60;10.10;;;4.00;99.90;;;;;;4972769;28;20034;-80
2022/01/31 03:25:59;;;;;;;19.05;10.23;;;4.10;99.90;;;;;;4987838;28;20138;-80
2022/01/31 03:28:24;;;;;;;16.50;9.75;;;4.10;99.90;;;;;;4962928;28;20053;-80
2022/01/31 03:30:51;;;;;;;16.50;10.00;;;4.20;99.90;;;;;;4959387;28;20051;-80
2022/01/31 03:33:17;;;;;;;14.52;9.52;;;4.30;99.90;;;;;;4986068;28;20122;-80
2022/01/31 03:35:43;;;;;;;13.82;8.18;;;4.30;99.90;;;;;;4969152;28;20062;-80
2022/01/31 03:38:09;;;;;;;15.65;9.68;;;4.40;99.90;;;;;;4963850;28;20133;-80
2022/01/31 03:40:34;;;;;;;16.85;8.85;;;4.50;99.90;;;;;;4959787;28;20112;-80
2022/01/31 03:43:00;;;;;;;14.25;7.88;;;4.50;99.90;;;;;;4971453;28;20171;-80
2022/01/31 03:45:32;;;;;;;17.08;7.88;;;4.70;99.90;;;;;;4970802;28;20417;-80
2022/01/31 03:48:00;;;;;;;21.70;7.50;;;4.90;99.90;;;;;;4956902;28;20554;-80
2022/01/31 03:50:26;;;;;;;18.10;6.85;;;5.00;99.90;;;;;;4956903;28;20367;-80
2022/01/31 03:52:53;;;;;;;14.13;5.95;;;5.10;99.90;;;;;;4971347;28;20038;-80
2022/01/31 03:55:19;;;;;;;15.25;5.38;;;5.20;99.90;;;;;;4960651;28;20046;-80
2022/01/31 03:57:45;;;;;;;20.90;5.35;;;5.40;99.90;;;;;;4959016;28;20090;-81
2022/01/31 04:00:13;;;;;;;19.50;4.80;;;5.60;99.90;;;;;;4973424;28;20046;-80
2022/01/31 04:02:39;;;;;;;16.77;3.95;;;5.80;99.90;;;;;;4956059;28;20133;-80
2022/01/31 04:05:05;;;;;;;21.15;5.07;;;5.90;99.90;;;;;;4964130;28;20034;-80
2022/01/31 04:07:31;;;;;;;21.98;4.82;;;6.00;99.90;;;;;;4955255;28;20414;-80
2022/01/31 04:09:57;;;;;;;18.83;3.97;;;6.00;99.90;;;;;;4960665;28;20125;-80
2022/01/31 04:12:22;;;;;;;25.65;4.88;;;6.10;99.90;;;;;;4958762;28;20042;-80
2022/01/31 04:14:48;;;;;;;15.05;3.30;;;6.10;99.90;;;;;;4966353;28;20035;-80
2022/01/31 04:17:14;;;;;;;14.20;2.83;;;6.20;99.90;;;;;;4956300;28;20158;-80
2022/01/31 04:19:40;;;;;;;13.75;3.05;;;6.10;99.90;;;;;;4974796;28;20046;-80
2022/01/31 04:22:13;;;;;;;19.02;3.20;;;6.10;99.90;;;;;;4961932;28;20047;-80
2022/01/31 04:24:41;;;;;;;15.75;3.17;;;6.10;99.90;;;;;;4976333;28;20046;-80
2022/01/31 04:27:07;;;;;;;15.30;3.33;;;6.10;99.90;;;;;;4962792;28;20608;-80
2022/01/31 04:29:37;;;;;;;16.48;3.03;;;6.10;99.90;;;;;;4972876;28;20037;-80
2022/01/31 04:32:04;;;;;;;14.73;2.80;;;6.10;99.90;;;;;;4969835;28;20030;-80
2022/01/31 04:34:31;;;;;;;12.63;2.53;;;6.00;99.90;;;;;;4982344;28;20054;-80
2022/01/31 04:37:00;;;;;;;10.73;2.20;;;5.90;99.90;;;;;;4957988;28;20125;-81
2022/01/31 04:39:28;;;;;;;15.27;3.05;;;5.80;99.90;;;;;;4966539;28;20085;-80
2022/01/31 04:41:53;;;;;;;9.85;2.60;;;5.70;99.90;;;;;;4972312;28;20042;-80
2022/01/31 04:44:19;;;;;;;14.63;2.80;;;5.70;99.90;;;;;;4971624;28;20267;-80
2022/01/31 04:46:49;;;;;;;12.07;2.88;;;5.70;99.90;;;;;;4973009;28;20398;-80
2022/01/31 04:49:19;;;;;;;13.45;2.30;;;5.60;99.90;;;;;;4978225;28;20482;-80
2022/01/31 04:51:44;;;;;;;11.80;2.75;;;5.50;99.90;;;;;;4963206;28;20042;-80
2022/01/31 04:54:10;;;;;;;14.20;2.70;;;5.50;99.90;;;;;;4971543;28;20050;-80
2022/01/31 04:56:38;;;;;;;17.33;3.72;;;5.40;99.90;;;;;;4972452;28;20126;-80
2022/01/31 04:59:03;;;;;;;12.30;2.92;;;5.30;99.90;;;;;;4957412;28;20528;-80
2022/01/31 05:01:30;;;;;;;17.27;3.00;;;5.30;99.90;;;;;;4989003;28;20053;-80
2022/01/31 05:03:55;;;;;;;16.42;3.40;;;5.30;99.90;;;;;;4962447;28;20405;-80
2022/01/31 05:06:28;;;;;;;15.27;3.28;;;5.30;99.90;;;;;;4979848;28;20040;-80
2022/01/31 05:08:56;;;;;;;19.48;3.10;;;5.50;99.90;;;;;;4969218;28;20049;-80
2022/01/31 05:11:25;;;;;;;16.17;3.05;;;5.50;99.90;;;;;;4957166;28;20630;-80
2022/01/31 05:13:50;;;;;;;18.48;4.32;;;5.50;99.90;;;;;;4974163;28;20113;-80
2022/01/31 05:16:16;;;;;;;17.35;2.90;;;5.60;99.90;;;;;;4969446;28;20038;-80
2022/01/31 05:18:44;;;;;;;14.20;2.70;;;5.60;99.90;;;;;;4969537;28;20290;-80
2022/01/31 05:21:10;;;;;;;8.82;1.35;;;5.50;99.90;;;;;;4952480;28;20353;-80
2022/01/31 05:23:36;;;;;;;5.35;1.45;;;5.40;99.90;;;;;;4968801;28;20150;-80
2022/01/31 05:26:02;;;;;;;2.90;0.73;;;5.10;99.90;;;;;;4976122;28;20121;-81
2022/01/31 05:28:28;;;;;;;3.30;1.30;;;5.00;99.90;;;;;;4970096;28;20399;-80
2022/01/31 05:30:53;;;;;;;7.55;1.38;;;5.00;99.90;;;;;;4972382;28;20046;-80
2022/01/31 05:33:19;;;;;;;10.38;1.48;;;5.00;99.90;;;;;;4965465;28;20042;-80
2022/01/31 05:35:45;;;;;;;4.97;1.23;;;5.00;99.90;;;;;;4981122;28;20054;-80
2022/01/31 05:38:12;;;;;;;7.68;1.40;;;5.00;99.90;;;;;;4968175;28;20461;-80
2022/01/31 05:40:38;;;;;;;9.45;1.42;;;5.10;99.90;;;;;;4979698;28;20133;-80
2022/01/31 05:43:03;;;;;;;5.90;1.02;;;5.10;99.90;;;;;;4959254;28;20103;-80
2022/01/31 05:45:29;;;;;;;6.63;1.23;;;5.10;99.90;;;;;;4971869;28;20042;-80
2022/01/31 05:47:58;;;;;;;8.90;1.70;;;5.10;99.90;;;;;;4972734;28;20043;-80
2022/01/31 05:50:24;;;;;;;8.85;1.67;;;5.10;99.90;;;;;;4964770;28;20045;-80
2022/01/31 05:52:51;;;;;;;5.72;1.60;;;5.10;99.90;;;;;;4972271;28;20042;-80
2022/01/31 05:55:16;;;;;;;5.18;1.10;;;5.20;99.90;;;;;;4971552;28;20125;-80
2022/01/31 05:57:43;;;;;;;6.40;1.60;;;5.20;99.90;;;;;;4952686;28;20104;-80
2022/01/31 06:00:10;;;;;;;10.00;1.80;;;5.20;99.90;;;;;;4970162;28;20451;-80
2022/01/31 06:02:35;;;;;;;6.65;1.75;;;5.20;99.90;;;;;;4967821;28;20100;-80
2022/01/31 06:05:02;;;;;;;4.47;1.45;;;5.30;99.90;;;;;;4967925;28;20030;-80
2022/01/31 06:07:28;;;;;;;8.27;1.65;;;5.30;99.90;;;;;;4953675;28;20050;-80
2022/01/31 06:09:54;;;;;;;8.38;1.67;;;5.30;99.90;;;;;;4985003;28;20060;-80
2022/01/31 06:12:19;;;;;;;10.07;2.65;;;5.40;99.90;;;;;;4967928;28;20378;-80
2022/01/31 06:14:45;;;;;;;10.57;1.92;;;5.40;99.90;;;;;;4973670;28;20061;-80
2022/01/31 06:17:11;;;;;;;9.95;2.13;;;5.40;99.90;;;;;;4962326;28;20043;-80
2022/01/31 06:19:36;;;;;;;9.57;1.55;;;5.40;99.90;;;;;;4988564;28;20125;-80
2022/01/31 06:22:05;;;;;;;11.52;2.03;;;5.40;99.90;;;;;;4972671;28;20034;-80
2022/01/31 06:24:31;;;;;;;12.60;1.73;;;5.40;99.90;;;;;;4969956;28;20046;-80
2022/01/31 06:26:58;;;;;;;15.07;2.95;;;5.40;99.90;;;;;;4954348;28;20049;-80
2022/01/31 06:29:24;;;;;;;14.10;2.45;;;5.40;99.90;;;;;;4972788;28;20058;-80
2022/01/31 06:31:50;;;;;;;13.68;2.40;;;5.50;99.90;;;;;;4958891;28;20042;-80
2022/01/31 06:34:18;;;;;;;11.07;1.90;;;5.40;99.90;;;;;;4961496;28;20049;-80
2022/01/31 06:36:45;;;;;;;13.32;2.45;;;5.50;99.90;;;;;;4961191;28;20035;-80
2022/01/31 06:39:10;;;;;;;9.82;2.08;;;5.50;99.90;;;;;;4969913;28;20365;-80
2022/01/31 06:41:36;;;;;;;12.55;2.17;;;5.50;99.90;;;;;;4966767;28;20396;-80
2022/01/31 06:44:02;;;;;;;11.40;2.65;;;5.50;99.90;;;;;;4954273;28;20315;-80
2022/01/31 06:46:28;;;;;;;8.43;1.67;;;5.50;99.90;;;;;;4952245;28;20503;-80
2022/01/31 06:48:54;;;;;;;9.68;2.25;;;5.50;99.90;;;;;;4984919;28;20118;-80
2022/01/31 06:51:19;;;;;;;6.47;1.23;;;5.60;99.90;;;;;;4956706;28;20121;-80
2022/01/31 06:53:48;;;;;;;7.82;1.60;;;5.50;99.90;;;;;;4969899;28;20035;-80
2022/01/31 06:56:16;;;;;;;8.13;1.52;;;5.60;99.90;;;;;;4968245;28;20070;-80
2022/01/31 06:58:41;;;;;;;7.18;1.55;;;5.70;99.90;;;;;;4960708;28;21492;-80
2022/01/31 07:01:07;;;;;;;7.88;1.23;;;5.70;99.90;;;;;;4974828;28;20039;-80
2022/01/31 07:03:36;;;;;;;9.18;1.23;;;5.70;99.90;;;;;;4959975;28;20046;-80
2022/01/31 07:06:01;;;;;;;6.05;1.92;;;5.70;99.90;;;;;;4960267;28;20505;-80
2022/01/31 07:08:27;;;;;;;10.35;1.80;;;5.70;99.90;;;;;;4953075;28;20042;-80
2022/01/31 07:10:53;;;;;;;6.30;1.30;;;5.70;99.90;;;;;;4958788;28;20486;-80
2022/01/31 07:16:01;;;;;;;7.72;1.50;;;5.80;99.90;;;;;;5003236;28;20056;-80
2022/01/31 07:18:26;;;;;;;11.00;2.10;;;5.80;99.90;;;;;;4971038;28;20093;-80
2022/01/31 07:20:53;;;;;;;9.32;1.90;;;5.80;99.90;;;;;;4978643;28;20034;-80
2022/01/31 07:23:37;;;;;;;9.82;1.70;;;5.80;99.90;;;;;;4951856;28;21157;-80
2022/01/31 07:26:03;;;;;;;11.77;2.08;;;5.80;99.90;;;;;;4976485;28;20030;-80
2022/01/31 07:28:28;;;;;;;10.35;1.88;;;5.80;99.90;;;;;;4970557;28;20049;-80
2022/01/31 07:30:56;;;;;;;9.13;1.63;;;5.80;99.90;;;;;;4967274;28;20176;-80
2022/01/31 07:33:23;;;;;;;9.40;1.83;;;5.80;99.90;;;;;;4956650;28;20643;-80
2022/01/31 07:35:49;;;;;;;10.30;1.70;;;5.90;99.90;;;;;;4968848;28;20379;-80
2022/01/31 07:38:17;;;;;;;12.07;2.33;;;5.80;99.90;;;;;;4955358;28;20054;-80
2022/01/31 07:40:46;;;;;;;12.57;1.98;;;5.90;99.90;;;;;;4955193;28;20117;-80
2022/01/31 07:43:13;;;;;;;12.15;2.05;;;5.80;99.90;;;;;;4956618;28;20494;-80
2022/01/31 07:45:39;;;;;;;12.23;2.00;;;5.80;99.90;;;;;;4973678;28;20137;-80
2022/01/31 07:48:05;;;;;;;14.20;2.15;;;5.90;99.90;;;;;;4970556;28;20038;-80
2022/01/31 07:50:32;;;;;;;8.10;1.60;;;5.80;99.90;;;;;;4978561;28;20034;-81
2022/01/31 07:52:57;;;;;;;6.95;1.80;;;5.80;99.90;;;;;;4959954;28;20097;-80
2022/01/31 07:55:23;;;;;;;9.25;2.05;;;5.80;99.90;;;;;;4964673;28;20476;-80
2022/01/31 07:57:49;;;;;;;15.50;2.00;;;5.80;99.90;;;;;;4969093;28;20093;-80
2022/01/31 08:00:16;;;;;;;8.30;1.50;;;5.80;99.90;;;;;;4959776;28;20042;-81
2022/01/31 08:02:42;;;;;;;5.00;1.35;;;5.80;99.90;;;;;;4962343;28;20767;-81
2022/01/31 08:05:09;;;;;;;12.27;2.00;;;5.80;99.90;;;;;;4963511;28;20034;-80
2022/01/31 08:07:35;;;;;;;7.75;1.60;;;5.80;99.90;;;;;;4977957;28;20408;-80
2022/01/31 08:10:02;;;;;;;11.13;1.58;;;5.90;99.90;;;;;;4977083;28;20031;-80
2022/01/31 08:12:29;;;;;;;7.05;1.52;;;5.90;99.90;;;;;;4955826;28;20658;-80
2022/01/31 08:15:01;;;;;;;11.15;2.55;;;5.90;99.90;;;;;;4980534;28;20121;-81
2022/01/31 08:17:27;;;;;;;8.15;1.65;;;5.90;99.90;;;;;;4976271;28;20166;-81
2022/01/31 08:19:52;;;;;;;13.75;2.42;;;5.80;99.90;;;;;;4975225;28;20046;-81
2022/01/31 08:22:18;;;;;;;10.43;1.83;;;5.90;99.90;;;;;;4976988;28;20898;-81
2022/01/31 08:24:44;;;;;;;12.23;2.30;;;5.90;99.90;;;;;;4964597;28;20045;-81
2022/01/31 08:27:10;;;;;;;10.05;1.80;;;5.90;99.90;;;;;;4973684;28;20039;-80
2022/01/31 08:29:37;;;;;;;11.50;1.83;;;5.90;99.90;;;;;;4974103;28;20126;-81
2022/01/31 08:32:09;;;;;;;14.48;1.95;;;5.80;99.90;;;;;;4975498;28;20042;-80
2022/01/31 08:37:20;;;;;;;;;;;6.00;99.90;;;;;;4988308;28;20050;-81
2022/01/31 08:39:46;;;;;;;10.25;1.85;;;6.10;99.90;;;;;;4974157;28;19926;-80
2022/01/31 08:42:12;;;;;;;10.00;1.80;;;6.00;99.90;;;;;;4959902;28;20295;-80
2022/01/31 08:44:37;;;;;;;11.27;2.08;;;6.10;99.90;;;;;;4972007;28;20557;-80
2022/01/31 08:47:04;;;;;;;11.15;1.95;;;6.10;99.90;;;;;;4969491;28;20114;-80
2022/01/31 08:49:33;;;;;;;9.10;1.77;;;6.10;99.90;;;;;;4976189;28;20130;-80
2022/01/31 08:51:59;;;;;;;13.05;2.13;;;6.10;99.90;;;;;;4957438;28;20296;-81
2022/01/31 08:54:25;;;;;;;9.30;2.00;;;6.20;99.90;;;;;;4964664;28;20066;-81
2022/01/31 08:56:50;;;;;;;11.00;2.35;;;6.40;99.90;;;;;;4971666;28;20136;-80
2022/01/31 08:59:24;;;;;;;10.98;2.00;;;6.40;99.90;;;;;;4985233;28;20459;-80
2022/01/31 09:01:54;;;;;;;11.63;1.80;;;6.40;99.90;;;;;;4971412;28;20630;-80
2022/01/31 09:07:04;;;;;;;10.95;2.00;;;6.40;99.90;;;;;;4979765;28;20038;-80
2022/01/31 09:09:33;;;;;;;9.38;1.73;;;6.40;99.90;;;;;;4974102;28;20464;-80
2022/01/31 09:11:59;;;;;;;10.35;2.30;;;6.40;99.90;;;;;;4985794;28;20129;-80
2022/01/31 09:14:25;;;;;;;7.50;1.75;;;6.40;99.90;;;;;;4967217;28;20092;-80
2022/01/31 09:16:52;;;;;;;8.57;1.83;;;6.40;99.90;;;;;;4975683;28;20065;-80
2022/01/31 09:19:17;;;;;;;12.20;3.58;;;6.40;99.90;;;;;;4968630;28;20404;-80
2022/01/31 09:21:45;;;;;;;10.63;2.35;;;6.60;99.90;;;;;;4958638;28;20129;-80
2022/01/31 09:24:14;;;;;;;8.13;1.92;;;6.70;99.90;;;;;;4971268;28;20046;-80
2022/01/31 09:26:39;;;;;;;13.55;1.98;;;6.80;99.90;;;;;;4952474;28;20046;-80
2022/01/31 09:29:05;;;;;;;9.88;1.67;;;6.90;99.90;;;;;;4969790;28;20108;-80
2022/01/31 09:31:31;;;;;;;9.68;2.25;;;7.00;99.90;;;;;;4968085;28;20437;-80
2022/01/31 09:33:56;;;;;;;8.93;1.90;;;6.80;99.90;;;;;;4971673;28;20035;-80
2022/01/31 09:36:22;;;;;;;10.32;2.55;;;6.80;99.90;;;;;;4965897;28;20039;-80
2022/01/31 09:38:49;;;;;;;13.90;1.98;;;6.80;99.90;;;;;;4953923;28;20137;-80
2022/01/31 09:41:22;;;;;;;10.55;2.28;;;6.80;99.90;;;;;;4956249;28;20053;-81
2022/01/31 09:44:03;;;;;;;15.80;2.38;;;6.80;99.90;;;;;;4971459;28;20449;-80
2022/01/31 09:48:56;;;;;;;15.13;1.70;;;6.60;99.90;;;;;;4972076;28;20405;-80
2022/01/31 09:51:24;;;;;;;7.07;1.80;;;6.70;99.90;;;;;;4961091;28;20045;-80
2022/01/31 09:53:53;;;;;;;7.13;1.33;;;6.60;99.90;;;;;;4988667;28;20424;-80
2022/01/31 09:56:22;;;;;;;8.48;1.33;;;6.80;99.90;;;;;;4971897;28;20039;-80
2022/01/31 09:58:49;;;;;;;7.43;1.58;;;6.70;99.90;;;;;;4969168;28;20088;-80
2022/01/31 10:01:34;;;;;;;6.57;1.38;;;6.70;99.90;;;;;;4961869;28;20439;-80
2022/01/31 10:04:09;;;;;;;8.68;1.55;;;6.70;99.90;;;;;;4988261;28;20323;-80
2022/01/31 10:06:37;;;;;;;6.82;1.55;;;6.80;99.90;;;;;;4985666;28;20038;-80
2022/01/31 10:09:06;;;;;;;11.32;1.80;;;6.90;99.90;;;;;;4956499;28;20449;-80
2022/01/31 10:11:51;;;;;;;8.43;1.90;;;6.90;99.90;;;;;;4954035;28;20037;-80
2022/01/31 10:17:31;;;;;;;9.73;1.70;;;7.10;99.90;;;;;;4968772;28;20074;-80
2022/01/31 10:20:00;;;;;;;9.23;1.80;;;7.10;99.90;;;;;;4953192;28;20069;-80
2022/01/31 10:22:29;;;;;;;8.10;1.48;;;7.30;99.90;;;;;;4970546;28;21958;-81
2022/01/31 10:25:04;;;;;;;12.55;1.80;;;7.30;99.90;;;;;;4961368;28;20046;-81
2022/01/31 10:27:34;;;;;;;10.55;1.73;;;7.30;99.90;;;;;;4964647;28;20121;-80
2022/01/31 10:30:15;;;;;;;13.75;2.50;;;7.20;99.90;;;;;;4961012;28;20152;-80
2022/01/31 10:32:49;;;;;;;9.52;1.83;;;7.30;99.90;;;;;;4968832;28;20042;-81
2022/01/31 10:35:18;;;;;;;12.13;3.13;;;7.30;99.90;;;;;;4970775;28;20046;-81
2022/01/31 10:37:45;;;;;;;9.93;2.50;;;7.30;99.90;;;;;;4976183;28;20050;-81
2022/01/31 10:46:08;;;;;;;6.13;1.80;;;7.40;99.90;;;;;;4968467;28;20049;-81
2022/01/31 10:56:49;;;;;;;9.35;1.88;;;7.40;99.90;;;;;;4987140;28;20057;-81
2022/01/31 10:59:18;;;;;;;7.05;1.80;;;7.40;99.90;;;;;;4974732;28;20053;-81
2022/01/31 11:01:47;;;;;;;4.35;1.40;;;7.40;99.90;;;;;;4971188;28;20411;-81
2022/01/31 11:04:15;;;;;;;10.25;2.05;;;7.40;99.90;;;;;;4971992;28;20069;-81
2022/01/31 11:06:56;;;;;;;12.95;1.63;;;7.60;99.90;;;;;;4966339;28;21504;-81
2022/01/31 11:09:21;;;;;;;8.63;1.92;;;7.60;99.90;;;;;;4955401;28;20073;-81
2022/01/31 11:11:50;;;;;;;13.05;2.35;;;7.60;99.90;;;;;;4967611;28;20125;-81
2022/01/31 11:14:16;;;;;;;10.38;1.83;;;7.70;99.90;;;;;;4961491;28;20514;-80
2022/01/31 11:16:44;;;;;;;10.00;2.15;;;7.70;99.90;;;;;;4951842;28;20047;-81
2022/01/31 11:19:12;;;;;;;10.52;1.92;;;7.80;99.90;;;;;;4968702;28;20038;-81
2022/01/31 11:21:43;;;;;;;10.20;1.90;;;7.80;99.90;;;;;;4967355;28;20041;-81
2022/01/31 11:24:17;;;;;;;10.75;1.98;;;7.80;99.90;;;;;;4962875;28;20034;-80
2022/01/31 11:26:48;;;;;;;9.57;2.00;;;7.90;99.90;;;;;;4973770;28;20050;-81
2022/01/31 11:29:14;;;;;;;9.50;1.92;;;7.90;99.90;;;;;;4970245;28;20061;-81
2022/01/31 11:31:40;;;;;;;7.88;2.10;;;7.90;99.90;;;;;;4962855;28;20038;-81
2022/01/31 11:34:07;;;;;;;11.48;1.75;;;8.00;99.90;;;;;;4975987;28;20243;-80
2022/01/31 11:36:35;;;;;;;14.45;2.35;;;8.20;99.90;;;;;;4957840;28;20090;-81
2022/01/31 11:39:04;;;;;;;13.55;2.67;;;8.20;99.90;;;;;;4966620;28;20058;-81
2022/01/31 11:41:31;;;;;;;16.40;2.95;;;8.20;99.90;;;;;;4987149;28;20042;-81
2022/01/31 11:44:01;;;;;;;15.25;3.42;;;8.20;99.90;;;;;;4954232;28;20126;-81
2022/01/31 11:46:28;;;;;;;18.05;2.75;;;8.10;99.90;;;;;;4961410;28;20379;-80
2022/01/31 11:48:54;;;;;;;12.90;2.35;;;8.40;99.90;;;;;;4972126;28;20039;-80
2022/01/31 11:51:21;;;;;;;20.02;3.03;;;8.50;99.90;;;;;;4960212;28;20048;-81
2022/01/31 11:54:05;;;;;;;13.75;2.25;;;8.40;99.90;;;;;;4972050;28;20042;-81
2022/01/31 11:56:30;;;;;;;19.60;3.40;;;8.30;99.90;;;;;;4975626;28;20497;-81
2022/01/31 11:58:58;;;;;;;11.20;3.05;;;8.30;99.90;;;;;;4969037;28;20507;-81
2022/01/31 12:01:28;;;;;;;17.27;3.08;;;8.20;99.90;;;;;;4961041;28;20428;-81
2022/01/31 12:03:59;;;;;;;17.25;3.05;;;8.10;99.90;;;;;;4977565;28;20185;-81
2022/01/31 12:06:28;;;;;;;15.68;2.40;;;8.10;99.90;;;;;;4972490;28;20066;-81
2022/01/31 12:09:05;;;;;;;13.23;2.72;;;7.90;99.90;;;;;;4969666;28;20038;-81
2022/01/31 12:11:51;;;;;;;14.18;2.72;;;8.10;99.90;;;;;;4955708;28;20153;-81
2022/01/31 12:14:24;;;;;;;16.65;3.65;;;8.10;99.90;;;;;;4971356;28;20125;-81
2022/01/31 12:17:07;;;;;;;18.77;2.95;;;8.20;99.90;;;;;;4975637;28;20311;-81
2022/01/31 12:22:46;;;;;;;17.88;2.72;;;8.30;99.90;;;;;;4972191;28;20129;-81
2022/01/31 12:25:27;;;;;;;;;;;8.10;99.90;;;;;;4975356;28;20213;-81
2022/01/31 12:27:55;;;;;;;11.60;2.75;;;8.00;99.90;;;;;;4969526;28;19988;-81
2022/01/31 12:30:32;;;;;;;11.30;2.85;;;7.90;99.90;;;;;;4970568;28;20066;-81
2022/01/31 12:32:59;;;;;;;10.73;2.13;;;7.90;99.90;;;;;;4971727;28;20145;-81
2022/01/31 12:35:36;;;;;;;14.45;3.15;;;8.00;99.90;;;;;;4978899;28;20446;-81
2022/01/31 12:38:04;;;;;;;18.02;3.08;;;8.00;99.90;;;;;;4974103;28;20449;-81
2022/01/31 12:40:39;;;;;;;14.75;2.47;;;7.90;99.90;;;;;;4958763;28;20058;-81
2022/01/31 12:45:39;;;;;;;14.05;3.17;;;8.00;99.90;;;;;;4989416;28;20478;-81
2022/01/31 12:48:20;;;;;;;18.55;2.88;;;8.00;99.90;;;;;;4960955;28;20031;-81
2022/01/31 12:50:51;;;;;;;17.75;2.78;;;8.00;99.90;;;;;;4959818;28;20038;-81
2022/01/31 12:53:23;;;;;;;17.13;2.67;;;8.10;99.90;;;;;;4981876;28;20467;-81
2022/01/31 12:56:02;;;;;;;14.60;3.00;;;8.10;99.90;;;;;;4975571;28;20462;-80
2022/01/31 12:58:34;;;;;;;15.05;2.50;;;8.20;99.90;;;;;;4960361;28;20039;-81
2022/01/31 13:01:14;;;;;;;15.23;3.47;;;8.20;99.90;;;;;;4965020;28;20386;-81
2022/01/31 13:03:43;;;;;;;21.15;3.10;;;8.30;99.90;;;;;;4953477;28;20060;-80
2022/01/31 13:06:30;;;;;;;15.40;2.55;;;8.30;99.90;;;;;;4958766;28;20070;-80
2022/01/31 13:08:58;;;;;;;17.05;2.95;;;8.20;99.90;;;;;;4969234;28;20035;-81
2022/01/31 13:11:26;;;;;;;17.63;3.13;;;8.10;99.90;;;;;;4951406;28;20046;-80
2022/01/31 13:14:00;;;;;;;20.45;3.42;;;8.10;99.90;;;;;;4969363;28;20521;-81
2022/01/31 13:16:36;;;;;;;11.65;2.38;;;8.10;99.90;;;;;;4966613;28;20050;-81
2022/01/31 13:19:16;;;;;;;17.50;3.15;;;8.00;99.90;;;;;;4972871;28;20050;-81
2022/01/31 13:21:42;;;;;;;18.10;3.28;;;7.70;99.90;;;;;;4969045;28;20102;-81
2022/01/31 13:24:08;;;;;;;14.25;2.47;;;7.70;99.90;;;;;;4957793;28;20042;-81
2022/01/31 13:26:52;;;;;;;20.42;3.05;;;7.80;99.90;;;;;;4971310;28;20431;-81